createdAt,value
2023-10-06T00:02:32.306Z,20.48
2023-10-06T00:05:00.068Z,48.08
2023-10-06T00:07:27.870Z,87.97
2023-10-06T00:09:56.220Z,87.88
2023-10-06T00:12:27.650Z,38.95
2023-10-06T00:14:57.567Z,36.08
2023-10-06T00:17:29.721Z,25.83
2023-10-06T00:20:01.517Z,27.20
2023-10-06T00:22:30.512Z,91.35
2023-10-06T00:25:01.011Z,25.20
2023-10-06T00:27:32.021Z,58.13
2023-10-06T00:30:00.177Z,20.77
2023-10-06T00:32:28.758Z,23.08
2023-10-06T00:35:19.189Z,27.23
2023-10-06T00:37:46.440Z,16.13
2023-10-06T00:40:26.086Z,63.20
2023-10-06T00:42:58.445Z,53.33
2023-10-06T00:45:27.608Z,23.17
2023-10-06T00:47:55.539Z,19.50
2023-10-06T00:50:26.501Z,12.80
2023-10-06T00:52:57.322Z,41.08
2023-10-06T00:55:24.786Z,33.65
2023-10-06T00:57:54.788Z,46.28
2023-10-06T01:00:22.943Z,30.52
2023-10-06T01:02:51.498Z,36.70
2023-10-06T01:05:22.756Z,22.52
2023-10-06T01:07:52.963Z,34.58
2023-10-06T01:10:29.319Z,16.40
2023-10-06T01:12:58.774Z,12.52
2023-10-06T01:15:30.696Z,24.63
2023-10-06T01:18:00.222Z,20.60
2023-10-06T01:20:43.020Z,40.47
2023-10-06T01:23:20.933Z,14.18
2023-10-06T01:25:48.868Z,49.65
2023-10-06T01:28:16.078Z,39.70
2023-10-06T01:30:43.421Z,60.25
2023-10-06T01:33:12.397Z,29.83
2023-10-06T01:35:44.053Z,31.55
2023-10-06T01:38:21.376Z,64.65
2023-10-06T01:40:52.218Z,42.70
2023-10-06T01:43:24.149Z,32.78
2023-10-06T01:45:52.910Z,27.10
2023-10-06T01:48:22.850Z,15.07
2023-10-06T01:50:50.425Z,25.08
2023-10-06T01:53:21.537Z,21.33
2023-10-06T01:55:57.978Z,43.75
2023-10-06T01:58:25.277Z,23.48
2023-10-06T02:00:52.499Z,18.08
2023-10-06T02:03:22.552Z,29.23
2023-10-06T02:05:50.176Z,52.70
2023-10-06T02:08:23.380Z,19.85
2023-10-06T02:10:51.953Z,28.42
2023-10-06T02:13:25.595Z,28.00
2023-10-06T02:16:04.771Z,23.45
2023-10-06T02:18:38.481Z,13.63
2023-10-06T02:21:10.876Z,35.92
2023-10-06T02:23:42.836Z,35.55
2023-10-06T02:26:13.718Z,60.50
2023-10-06T02:28:45.185Z,26.42
2023-10-06T02:31:13.104Z,26.38
2023-10-06T02:33:48.016Z,19.13
2023-10-06T02:38:52.798Z,19.35
2023-10-06T02:41:22.226Z,19.83
2023-10-06T02:43:51.341Z,12.70
2023-10-06T02:46:24.176Z,15.68
2023-10-06T02:48:52.096Z,19.42
2023-10-06T02:51:22.320Z,28.73
2023-10-06T02:53:52.763Z,16.58
2023-10-06T02:56:22.479Z,14.30
2023-10-06T02:58:52.266Z,25.88
2023-10-06T03:01:20.136Z,13.60
2023-10-06T03:03:51.853Z,38.00
2023-10-06T03:06:21.236Z,14.48
2023-10-06T03:08:49.169Z,12.18
2023-10-06T03:11:26.323Z,41.60
2023-10-06T03:13:56.456Z,33.15
2023-10-06T03:16:26.944Z,29.63
2023-10-06T03:18:55.722Z,16.10
2023-10-06T03:21:24.041Z,13.10
2023-10-06T03:23:59.130Z,14.77
2023-10-06T03:26:26.790Z,17.98
2023-10-06T03:28:54.752Z,21.80
2023-10-06T03:31:22.959Z,18.80
2023-10-06T03:33:56.401Z,23.77
2023-10-06T03:36:39.607Z,23.83
2023-10-06T03:39:13.065Z,23.77
2023-10-06T03:41:45.532Z,36.33
2023-10-06T03:44:13.779Z,27.50
2023-10-06T03:46:43.582Z,24.70
2023-10-06T03:49:14.794Z,18.35
2023-10-06T03:51:42.346Z,11.98
2023-10-06T03:54:10.755Z,17.60
2023-10-06T03:56:38.182Z,34.90
2023-10-06T03:59:13.965Z,23.08
2023-10-06T04:01:43.819Z,52.15
2023-10-06T04:04:11.309Z,14.50
2023-10-06T04:06:38.936Z,51.28
2023-10-06T04:09:06.814Z,126.68
2023-10-06T04:11:35.555Z,84.07
2023-10-06T04:14:03.069Z,66.13
2023-10-06T04:16:31.996Z,17.05
2023-10-06T04:18:59.241Z,125.43
2023-10-06T04:21:26.541Z,145.27
2023-10-06T04:23:54.223Z,22.10
2023-10-06T04:26:24.103Z,24.20
2023-10-06T04:28:51.193Z,83.30
2023-10-06T04:31:18.322Z,60.65
2023-10-06T04:33:45.900Z,100.45
2023-10-06T04:36:22.215Z,99.40
2023-10-06T04:38:49.600Z,77.32
2023-10-06T04:41:16.794Z,149.13
2023-10-06T04:43:46.343Z,23.15
2023-10-06T04:46:15.765Z,61.67
2023-10-06T04:48:43.306Z,86.63
2023-10-06T04:51:10.964Z,157.90
2023-10-06T04:53:39.638Z,155.27
2023-10-06T04:56:10.057Z,210.57
2023-10-06T04:58:40.366Z,105.68
2023-10-06T05:01:09.776Z,82.75
2023-10-06T05:03:47.806Z,17.92
2023-10-06T05:06:19.818Z,185.48
2023-10-06T05:08:51.034Z,309.00
2023-10-06T05:11:20.160Z,184.00
2023-10-06T05:13:54.314Z,152.73
2023-10-06T05:16:24.911Z,105.38
2023-10-06T05:18:53.008Z,79.00
2023-10-06T05:21:21.799Z,909.42
2023-10-06T05:23:49.169Z,361.10
2023-10-06T05:26:17.494Z,223.07
2023-10-06T05:28:45.782Z,636.20
2023-10-06T05:31:13.855Z,681.80
2023-10-06T05:33:42.325Z,417.20
2023-10-06T05:36:19.320Z,739.15
2023-10-06T05:38:48.052Z,460.48
2023-10-06T05:41:16.545Z,105.40
2023-10-06T05:43:44.967Z,213.82
2023-10-06T05:46:12.964Z,440.33
2023-10-06T05:48:41.612Z,223.68
2023-10-06T05:51:12.762Z,285.35
2023-10-06T05:53:45.336Z,111.80
2023-10-06T05:56:13.777Z,551.03
2023-10-06T05:58:42.569Z,53.08
2023-10-06T06:01:20.170Z,325.65
2023-10-06T06:03:48.553Z,702.20
2023-10-06T06:06:17.743Z,206.40
2023-10-06T06:08:48.956Z,434.48
2023-10-06T06:11:17.566Z,128.40
2023-10-06T06:13:48.256Z,214.75
2023-10-06T06:16:20.446Z,86.00
2023-10-06T06:18:49.687Z,299.60
2023-10-06T06:21:17.934Z,293.83
2023-10-06T06:23:47.823Z,283.33
2023-10-06T06:26:18.562Z,71.97
2023-10-06T06:28:46.311Z,39.17
2023-10-06T06:31:21.164Z,36.92
2023-10-06T06:36:27.184Z,51.22
2023-10-06T06:38:56.015Z,43.92
2023-10-06T06:41:23.396Z,31.75
2023-10-06T06:43:50.963Z,19.73
2023-10-06T06:46:18.643Z,21.80
2023-10-06T06:48:48.178Z,37.33
2023-10-06T06:51:15.477Z,43.80
2023-10-06T06:53:42.641Z,16.08
2023-10-06T06:56:12.277Z,17.00
2023-10-06T06:58:40.434Z,18.13
2023-10-06T07:01:16.356Z,15.00
2023-10-06T07:03:43.912Z,15.35
2023-10-06T07:06:17.797Z,16.02
2023-10-06T07:08:48.523Z,15.70
2023-10-06T07:11:17.169Z,23.00
2023-10-06T07:13:46.989Z,19.88
2023-10-06T07:16:16.146Z,15.48
2023-10-06T07:18:43.680Z,36.65
2023-10-06T07:21:12.515Z,24.10
2023-10-06T07:23:39.918Z,18.30
2023-10-06T07:26:14.825Z,11.35
2023-10-06T07:28:42.290Z,14.48
2023-10-06T07:31:15.018Z,27.25
2023-10-06T07:33:45.730Z,19.77
2023-10-06T07:36:19.608Z,22.83
2023-10-06T07:38:49.870Z,14.35
2023-10-06T07:41:27.080Z,13.40
2023-10-06T07:43:54.746Z,17.90
2023-10-06T07:46:22.113Z,14.65
2023-10-06T07:48:51.988Z,19.85
2023-10-06T07:51:20.576Z,16.85
2023-10-06T07:53:47.847Z,12.52
2023-10-06T07:56:16.057Z,14.43
2023-10-06T07:58:43.392Z,19.83
2023-10-06T08:01:12.571Z,9.93
2023-10-06T08:03:41.085Z,17.80
2023-10-06T08:06:12.348Z,15.00
2023-10-06T08:08:39.774Z,48.13
2023-10-06T08:11:07.890Z,36.83
2023-10-06T08:13:35.843Z,41.88
2023-10-06T08:16:04.057Z,31.50
2023-10-06T08:18:31.622Z,24.42
2023-10-06T08:21:02.353Z,19.40
2023-10-06T08:23:30.904Z,12.48
2023-10-06T08:26:00.977Z,17.33
2023-10-06T08:28:28.935Z,10.82
2023-10-06T08:30:56.257Z,16.77
2023-10-06T08:33:27.481Z,16.27
2023-10-06T08:35:59.059Z,16.27
2023-10-06T08:38:26.795Z,16.10
2023-10-06T08:41:02.152Z,12.95
2023-10-06T08:43:29.743Z,39.05
2023-10-06T08:46:01.516Z,46.70
2023-10-06T08:48:37.503Z,14.75
2023-10-06T08:51:09.181Z,28.50
2023-10-06T08:53:42.042Z,30.02
2023-10-06T08:56:09.485Z,22.15
2023-10-06T08:58:37.133Z,14.45
2023-10-06T09:01:14.657Z,11.73
2023-10-06T09:03:41.932Z,23.23
2023-10-06T09:06:13.356Z,14.50
2023-10-06T09:08:42.951Z,10.48
2023-10-06T09:11:14.043Z,17.77
2023-10-06T09:13:41.458Z,13.93
2023-10-06T09:16:08.809Z,23.85
2023-10-06T09:18:40.452Z,12.50
2023-10-06T09:21:22.457Z,15.68
2023-10-06T09:23:50.818Z,19.20
2023-10-06T09:26:38.614Z,14.38
2023-10-06T09:29:05.955Z,16.35
2023-10-06T09:31:46.330Z,11.68
2023-10-06T09:34:24.361Z,17.67
2023-10-06T09:36:53.103Z,62.33
2023-10-06T09:39:28.126Z,15.60
2023-10-06T09:41:55.911Z,13.15
2023-10-06T09:44:24.445Z,17.58
2023-10-06T09:46:56.036Z,22.85
2023-10-06T09:49:23.646Z,30.67
2023-10-06T09:51:54.008Z,12.43
2023-10-06T09:54:22.527Z,11.48
2023-10-06T09:56:50.656Z,27.73
2023-10-06T09:59:18.743Z,17.85
2023-10-06T10:01:49.494Z,11.00
2023-10-06T10:04:18.137Z,14.90
2023-10-06T10:06:46.285Z,23.55
2023-10-06T10:09:18.425Z,12.77
2023-10-06T10:11:54.430Z,16.40
2023-10-06T10:14:50.668Z,14.55
2023-10-06T10:17:20.064Z,13.45
2023-10-06T10:19:49.231Z,15.40
2023-10-06T10:22:17.666Z,23.02
2023-10-06T10:27:23.753Z,12.13
2023-10-06T10:29:51.252Z,21.92
2023-10-06T10:32:19.570Z,16.67
2023-10-06T10:35:18.505Z,31.33
2023-10-06T10:38:08.065Z,16.38
2023-10-06T10:40:49.157Z,17.40
2023-10-06T10:43:17.788Z,27.75
2023-10-06T10:45:45.539Z,48.05
2023-10-06T10:48:17.039Z,29.33
2023-10-06T10:51:07.270Z,15.50
2023-10-06T10:53:39.566Z,16.30
2023-10-06T10:56:08.324Z,94.55
2023-10-06T10:58:49.623Z,16.25
2023-10-06T11:01:31.073Z,21.00
2023-10-06T11:04:22.927Z,20.70
2023-10-06T11:06:51.864Z,14.52
2023-10-06T11:09:27.748Z,22.45
2023-10-06T11:12:23.162Z,12.60
2023-10-06T11:14:52.765Z,11.50
2023-10-06T11:17:24.598Z,18.23
2023-10-06T11:20:24.158Z,15.07
2023-10-06T11:22:55.910Z,49.38
2023-10-06T11:25:30.027Z,16.50
2023-10-06T11:28:10.337Z,11.70
2023-10-06T11:30:40.312Z,10.48
2023-10-06T11:33:10.244Z,17.35
2023-10-06T11:35:42.218Z,23.48
2023-10-06T11:38:13.609Z,17.88
2023-10-06T11:40:42.421Z,9.88
2023-10-06T11:43:14.808Z,10.57
2023-10-06T11:45:43.917Z,9.75
2023-10-06T11:48:25.879Z,8.20
2023-10-06T11:51:14.075Z,35.22
2023-10-06T11:53:41.925Z,12.75
2023-10-06T11:56:17.058Z,10.98
2023-10-06T11:58:46.318Z,25.52
2023-10-06T12:01:38.984Z,21.00
2023-10-06T12:04:24.325Z,22.25
2023-10-06T12:09:31.071Z,12.48
2023-10-06T12:12:01.365Z,14.80
2023-10-06T12:14:29.562Z,9.52
2023-10-06T12:16:56.899Z,12.05
2023-10-06T12:19:25.143Z,11.02
2023-10-06T12:21:53.341Z,12.45
2023-10-06T12:24:23.833Z,9.80
2023-10-06T12:26:51.347Z,9.98
2023-10-06T12:29:18.851Z,8.73
2023-10-06T12:31:47.475Z,13.68
2023-10-06T12:34:17.287Z,13.40
2023-10-06T12:36:53.157Z,8.38
2023-10-06T12:39:38.286Z,12.23
2023-10-06T12:42:06.510Z,13.93
2023-10-06T12:44:36.136Z,11.35
2023-10-06T12:47:05.389Z,17.88
2023-10-06T12:49:33.010Z,13.23
2023-10-06T12:52:00.789Z,14.43
2023-10-06T12:54:27.949Z,10.40
2023-10-06T12:56:55.128Z,10.60
2023-10-06T12:59:22.451Z,16.23
2023-10-06T13:01:50.566Z,11.27
2023-10-06T13:04:19.348Z,11.10
2023-10-06T13:06:48.919Z,14.13
2023-10-06T13:09:22.026Z,14.10
2023-10-06T13:11:49.584Z,13.98
2023-10-06T13:14:17.284Z,15.00
2023-10-06T13:16:44.720Z,21.85
2023-10-06T13:19:12.086Z,10.82
2023-10-06T13:21:39.239Z,52.22
2023-10-06T13:24:09.352Z,24.67
2023-10-06T13:26:44.319Z,23.67
2023-10-06T13:29:12.240Z,17.02
2023-10-06T13:31:40.716Z,28.95
2023-10-06T13:34:09.364Z,11.18
2023-10-06T13:36:37.001Z,14.27
2023-10-06T13:39:10.421Z,19.55
2023-10-06T13:41:43.589Z,24.88
2023-10-06T13:44:11.183Z,19.02
2023-10-06T13:46:38.653Z,12.52
2023-10-06T13:49:05.915Z,11.95
2023-10-06T13:51:34.325Z,16.55
2023-10-06T13:54:04.527Z,30.80
2023-10-06T13:56:35.688Z,14.40
2023-10-06T13:59:05.523Z,21.40
2023-10-06T14:01:35.816Z,11.80
2023-10-06T14:04:04.779Z,73.88
2023-10-06T14:06:32.001Z,19.45
2023-10-06T14:09:00.372Z,12.73
2023-10-06T14:11:29.288Z,14.10
2023-10-06T14:13:58.647Z,14.68
2023-10-06T14:16:26.675Z,14.48
2023-10-06T14:18:54.807Z,9.80
2023-10-06T14:21:21.973Z,19.88
2023-10-06T14:23:50.840Z,14.15
2023-10-06T14:26:20.204Z,14.75
2023-10-06T14:28:47.604Z,40.85
2023-10-06T14:31:21.357Z,15.57
2023-10-06T14:34:11.485Z,14.07
2023-10-06T14:36:39.505Z,23.83
2023-10-06T14:39:25.445Z,10.40
2023-10-06T14:42:01.816Z,10.35
2023-10-06T14:44:47.738Z,21.63
2023-10-06T14:47:15.075Z,11.45
2023-10-06T14:49:44.907Z,16.95
2023-10-06T14:52:12.956Z,13.35
2023-10-06T14:54:40.130Z,22.17
2023-10-06T14:57:07.281Z,21.00
2023-10-06T14:59:35.316Z,13.98
2023-10-06T15:02:08.539Z,35.33
2023-10-06T15:04:36.947Z,17.50
2023-10-06T15:07:04.311Z,32.58
2023-10-06T15:09:36.287Z,17.85
2023-10-06T15:12:05.475Z,20.77
2023-10-06T15:14:35.152Z,64.88
2023-10-06T15:17:05.281Z,46.85
2023-10-06T15:19:36.768Z,43.63
2023-10-06T15:22:04.844Z,22.15
2023-10-06T15:24:31.981Z,11.18
2023-10-06T15:26:59.137Z,27.95
2023-10-06T15:29:29.376Z,16.40
2023-10-06T15:31:57.255Z,22.63
2023-10-06T15:34:25.428Z,67.43
2023-10-06T15:36:52.576Z,13.13
2023-10-06T15:39:20.228Z,16.90
2023-10-06T15:41:50.165Z,21.70
2023-10-06T15:44:19.561Z,19.17
2023-10-06T15:46:47.873Z,19.95
2023-10-06T15:49:19.801Z,22.02
2023-10-06T15:51:48.962Z,56.40
2023-10-06T15:54:17.392Z,52.38
2023-10-06T15:56:45.316Z,38.30
2023-10-06T15:59:16.704Z,50.13
2023-10-06T16:01:46.022Z,88.70
2023-10-06T16:04:14.670Z,56.10
2023-10-06T16:06:44.266Z,49.22
2023-10-06T16:09:17.206Z,26.38
2023-10-06T16:11:45.293Z,17.33
2023-10-06T16:14:17.097Z,63.15
2023-10-06T16:16:45.976Z,38.63
2023-10-06T16:19:15.020Z,56.03
2023-10-06T16:21:43.175Z,62.35
2023-10-06T16:24:12.929Z,56.88
2023-10-06T16:26:40.439Z,71.13
2023-10-06T16:29:09.033Z,23.25
2023-10-06T16:31:36.710Z,56.58
2023-10-06T16:34:04.816Z,19.60
2023-10-06T16:36:32.279Z,116.57
2023-10-06T16:39:00.651Z,68.72
2023-10-06T16:41:27.849Z,21.20
2023-10-06T16:43:57.207Z,66.35
2023-10-06T16:46:24.902Z,36.65
2023-10-06T16:48:52.709Z,29.90
2023-10-06T16:51:21.537Z,19.40
2023-10-06T16:53:50.035Z,37.60
2023-10-06T16:56:20.074Z,48.70
2023-10-06T16:58:47.860Z,40.17
2023-10-06T17:01:15.722Z,94.40
2023-10-06T17:03:43.247Z,12.02
2023-10-06T17:06:15.127Z,54.47
2023-10-06T17:08:42.438Z,18.40
2023-10-06T17:11:16.132Z,80.15
2023-10-06T17:13:43.688Z,58.13
2023-10-06T17:16:14.641Z,26.17
2023-10-06T17:18:45.283Z,66.00
2023-10-06T17:21:14.048Z,33.70
2023-10-06T17:23:41.424Z,59.30
2023-10-06T17:26:10.079Z,90.80
2023-10-06T17:28:37.484Z,48.28
2023-10-06T17:31:04.909Z,70.68
2023-10-06T17:33:33.605Z,41.72
2023-10-06T17:36:02.350Z,95.47
2023-10-06T17:38:29.592Z,61.35
2023-10-06T17:41:00.878Z,68.13
2023-10-06T17:43:28.665Z,98.38
2023-10-06T17:45:56.823Z,120.88
2023-10-06T17:48:25.003Z,75.72
2023-10-06T17:50:52.405Z,31.17
2023-10-06T17:53:19.768Z,48.25
2023-10-06T17:55:57.598Z,17.35
2023-10-06T17:58:24.897Z,57.50
2023-10-06T18:00:53.114Z,50.47
2023-10-06T18:03:20.644Z,27.10
2023-10-06T18:05:49.731Z,44.15
2023-10-06T18:08:17.912Z,21.02
2023-10-06T18:10:49.342Z,49.63
2023-10-06T18:13:18.014Z,21.48
2023-10-06T18:15:48.447Z,25.83
2023-10-06T18:18:15.658Z,52.22
2023-10-06T18:20:44.479Z,13.07
2023-10-06T18:23:14.417Z,13.75
2023-10-06T18:25:41.868Z,18.90
2023-10-06T18:28:09.298Z,14.82
2023-10-06T18:30:36.470Z,48.67
2023-10-06T18:33:07.765Z,25.13
2023-10-06T18:35:37.938Z,15.98
2023-10-06T18:38:05.231Z,28.00
2023-10-06T18:40:34.210Z,23.17
2023-10-06T18:43:02.189Z,31.70
2023-10-06T18:45:34.324Z,19.38
2023-10-06T18:48:02.595Z,44.85
2023-10-06T18:50:31.821Z,21.08
2023-10-06T18:52:59.142Z,26.70
2023-10-06T18:55:26.343Z,30.27
2023-10-06T18:57:55.262Z,30.17
2023-10-06T19:00:24.299Z,19.67
2023-10-06T19:02:52.280Z,66.55
2023-10-06T19:05:19.792Z,33.53
2023-10-06T19:07:47.264Z,27.58
2023-10-06T19:10:15.914Z,41.60
2023-10-06T19:12:46.807Z,59.58
2023-10-06T19:15:14.316Z,59.20
2023-10-06T19:17:42.564Z,66.30
2023-10-06T19:20:10.580Z,25.27
2023-10-06T19:22:39.484Z,28.65
2023-10-06T19:25:11.230Z,38.00
2023-10-06T19:27:39.609Z,20.83
2023-10-06T19:30:11.284Z,63.08
2023-10-06T19:32:39.231Z,56.92
2023-10-06T19:35:10.646Z,28.50
2023-10-06T19:37:39.203Z,12.85
2023-10-06T19:40:10.767Z,39.03
2023-10-06T19:42:41.297Z,25.13
2023-10-06T19:45:08.984Z,19.83
2023-10-06T19:47:36.767Z,20.50
2023-10-06T19:50:13.042Z,36.03
2023-10-06T19:52:41.240Z,22.10
2023-10-06T19:55:09.375Z,29.50
2023-10-06T19:57:37.364Z,41.13
2023-10-06T20:00:12.498Z,16.27
2023-10-06T20:02:41.950Z,32.38
2023-10-06T20:05:11.830Z,17.10
2023-10-06T20:07:39.077Z,23.20
2023-10-06T20:10:06.954Z,19.38
2023-10-06T20:12:34.114Z,19.95
2023-10-06T20:15:03.822Z,15.25
2023-10-06T20:17:31.977Z,17.25
2023-10-06T20:19:59.291Z,26.98
2023-10-06T20:22:27.542Z,23.48
2023-10-06T20:24:54.845Z,50.28
2023-10-06T20:27:22.876Z,59.13
2023-10-06T20:29:50.190Z,22.08
2023-10-06T20:32:17.509Z,10.20
2023-10-06T20:34:45.040Z,60.97
2023-10-06T20:37:12.230Z,36.22
2023-10-06T20:39:39.464Z,47.30
2023-10-06T20:42:06.959Z,20.45
2023-10-06T20:44:34.292Z,28.33
2023-10-06T20:47:01.768Z,25.60
2023-10-06T20:49:29.105Z,27.13
2023-10-06T20:51:56.491Z,65.43
2023-10-06T20:54:23.723Z,21.45
2023-10-06T20:56:52.977Z,50.95
2023-10-06T20:59:20.205Z,29.40
2023-10-06T21:01:49.250Z,18.60
2023-10-06T21:04:16.623Z,32.28
2023-10-06T21:06:44.158Z,20.83
2023-10-06T21:09:11.390Z,15.32
2023-10-06T21:11:41.327Z,17.30
2023-10-06T21:14:13.687Z,20.98
2023-10-06T21:16:41.086Z,47.58
2023-10-06T21:19:08.506Z,51.67
2023-10-06T21:21:35.758Z,34.20
2023-10-06T21:24:03.206Z,42.33
2023-10-06T21:26:30.428Z,57.47
2023-10-06T21:28:57.666Z,48.38
2023-10-06T21:31:25.095Z,35.20
2023-10-06T21:33:52.433Z,42.47
2023-10-06T21:36:20.489Z,8.45
2023-10-06T21:38:47.980Z,87.43
2023-10-06T21:41:15.942Z,51.42
2023-10-06T21:43:43.357Z,28.23
2023-10-06T21:46:11.321Z,41.25
2023-10-06T21:48:38.457Z,8.85
2023-10-06T21:51:07.741Z,8.80
2023-10-06T21:53:35.143Z,47.35
2023-10-06T21:56:13.162Z,57.13
2023-10-06T21:58:45.370Z,27.02
2023-10-06T22:01:21.019Z,41.30
2023-10-06T22:03:49.582Z,34.58
2023-10-06T22:06:20.752Z,30.38
2023-10-06T22:08:48.188Z,85.97
2023-10-06T22:11:16.816Z,10.90
2023-10-06T22:13:44.128Z,41.55
2023-10-06T22:16:14.028Z,58.42
2023-10-06T22:18:42.268Z,16.33
2023-10-06T22:21:11.361Z,8.20
2023-10-06T22:23:39.330Z,118.93
2023-10-06T22:26:06.697Z,17.10
2023-10-06T22:28:33.979Z,47.17
2023-10-06T22:31:05.510Z,21.02
2023-10-06T22:33:33.528Z,15.80
2023-10-06T22:36:02.106Z,14.25
2023-10-06T22:38:29.373Z,43.95
2023-10-06T22:40:57.280Z,95.63
2023-10-06T22:43:24.694Z,21.92
2023-10-06T22:45:51.984Z,19.73
2023-10-06T22:48:19.288Z,53.88
2023-10-06T22:50:46.564Z,13.68
2023-10-06T22:53:13.884Z,23.80
2023-10-06T22:55:41.340Z,20.02
2023-10-06T22:58:08.703Z,15.68
2023-10-06T23:00:36.403Z,22.88
2023-10-06T23:03:03.915Z,9.68
2023-10-06T23:05:31.332Z,6.32
2023-10-06T23:07:58.522Z,10.98
2023-10-06T23:10:27.911Z,52.20
2023-10-06T23:12:56.961Z,87.80
2023-10-06T23:15:24.318Z,74.93
2023-10-06T23:17:51.774Z,56.05
2023-10-06T23:20:22.091Z,17.02
2023-10-06T23:23:00.406Z,49.92
2023-10-06T23:25:37.965Z,56.35
2023-10-06T23:28:08.400Z,16.08
2023-10-06T23:30:38.332Z,57.08
2023-10-06T23:33:06.138Z,18.67
2023-10-06T23:35:33.525Z,29.08
2023-10-06T23:38:01.373Z,28.85
2023-10-06T23:40:34.876Z,46.00
2023-10-06T23:43:02.022Z,65.65
2023-10-06T23:45:32.548Z,25.65
2023-10-06T23:48:01.013Z,44.08
2023-10-06T23:50:31.671Z,28.42
2023-10-06T23:53:03.568Z,12.20
2023-10-06T23:55:33.240Z,22.65
2023-10-06T23:58:01.509Z,8.60
